sensor_id;sensor_type;location;lat;lon;timestamp;P1;durP1;ratioP1;P2;durP2;ratioP2
77310;SDS011;66371;52.714;5.074;2023-03-15T00:00:00;848.00;;;810.63;;
77310;SDS011;66371;52.714;5.074;2023-03-15T00:02:26;837.87;;;799.90;;
77310;SDS011;66371;52.714;5.074;2023-03-15T00:04:51;844.25;;;807.40;;
77310;SDS011;66371;52.714;5.074;2023-03-15T00:07:18;828.70;;;792.17;;
77310;SDS011;66371;52.714;5.074;2023-03-15T00:09:49;826.10;;;791.00;;
77310;SDS011;66371;52.714;5.074;2023-03-15T00:14:41;836.03;;;800.43;;
77310;SDS011;66371;52.714;5.074;2023-03-15T00:17:06;847.03;;;812.53;;
77310;SDS011;66371;52.714;5.074;2023-03-15T00:19:31;810.00;;;777.08;;
77310;SDS011;66371;52.714;5.074;2023-03-15T00:21:57;791.25;;;758.78;;
77310;SDS011;66371;52.714;5.074;2023-03-15T00:24:22;828.42;;;795.97;;
77310;SDS011;66371;52.714;5.074;2023-03-15T00:26:48;798.60;;;768.57;;
77310;SDS011;66371;52.714;5.074;2023-03-15T00:29:13;764.40;;;735.75;;
77310;SDS011;66371;52.714;5.074;2023-03-15T00:31:39;779.22;;;750.55;;
77310;SDS011;66371;52.714;5.074;2023-03-15T00:34:04;738.55;;;711.10;;
77310;SDS011;66371;52.714;5.074;2023-03-15T00:36:29;729.53;;;702.83;;
77310;SDS011;66371;52.714;5.074;2023-03-15T00:38:56;731.15;;;704.70;;
77310;SDS011;66371;52.714;5.074;2023-03-15T00:41:22;722.13;;;695.45;;
77310;SDS011;66371;52.714;5.074;2023-03-15T00:43:48;741.60;;;714.13;;
77310;SDS011;66371;52.714;5.074;2023-03-15T00:46:17;735.42;;;707.85;;
77310;SDS011;66371;52.714;5.074;2023-03-15T00:48:43;769.42;;;740.92;;
77310;SDS011;66371;52.714;5.074;2023-03-15T00:51:13;739.05;;;711.25;;
77310;SDS011;66371;52.714;5.074;2023-03-15T00:53:41;737.20;;;709.63;;
77310;SDS011;66371;52.714;5.074;2023-03-15T00:56:09;749.35;;;721.22;;
77310;SDS011;66371;52.714;5.074;2023-03-15T00:59:01;752.35;;;723.15;;
77310;SDS011;66371;52.714;5.074;2023-03-15T01:01:27;758.90;;;729.53;;
77310;SDS011;66371;52.714;5.074;2023-03-15T01:03:53;755.35;;;726.45;;
77310;SDS011;66371;52.714;5.074;2023-03-15T01:06:21;753.88;;;724.83;;
77310;SDS011;66371;52.714;5.074;2023-03-15T01:08:51;752.75;;;724.15;;
77310;SDS011;66371;52.714;5.074;2023-03-15T01:11:20;749.58;;;720.38;;
77310;SDS011;66371;52.714;5.074;2023-03-15T01:13:52;759.80;;;730.63;;
77310;SDS011;66371;52.714;5.074;2023-03-15T01:16:19;771.88;;;741.80;;
77310;SDS011;66371;52.714;5.074;2023-03-15T01:18:45;757.20;;;728.20;;
77310;SDS011;66371;52.714;5.074;2023-03-15T01:21:11;770.00;;;740.35;;
77310;SDS011;66371;52.714;5.074;2023-03-15T01:23:38;768.13;;;738.15;;
77310;SDS011;66371;52.714;5.074;2023-03-15T01:26:05;783.10;;;752.08;;
77310;SDS011;66371;52.714;5.074;2023-03-15T01:28:31;786.65;;;755.03;;
77310;SDS011;66371;52.714;5.074;2023-03-15T01:30:57;783.67;;;752.25;;
77310;SDS011;66371;52.714;5.074;2023-03-15T01:33:23;780.17;;;748.53;;
77310;SDS011;66371;52.714;5.074;2023-03-15T01:35:56;774.38;;;743.33;;
77310;SDS011;66371;52.714;5.074;2023-03-15T01:38:27;778.30;;;746.92;;
77310;SDS011;66371;52.714;5.074;2023-03-15T01:40:52;767.20;;;736.55;;
77310;SDS011;66371;52.714;5.074;2023-03-15T01:43:19;782.72;;;751.63;;
77310;SDS011;66371;52.714;5.074;2023-03-15T01:54:07;790.22;;;757.65;;
77310;SDS011;66371;52.714;5.074;2023-03-15T01:56:38;791.55;;;759.03;;
77310;SDS011;66371;52.714;5.074;2023-03-15T01:59:08;792.20;;;759.53;;
77310;SDS011;66371;52.714;5.074;2023-03-15T02:01:39;849.33;;;813.92;;
77310;SDS011;66371;52.714;5.074;2023-03-15T02:04:09;784.72;;;752.92;;
77310;SDS011;66371;52.714;5.074;2023-03-15T02:06:42;791.90;;;759.20;;
77310;SDS011;66371;52.714;5.074;2023-03-15T02:09:10;810.33;;;776.95;;
77310;SDS011;66371;52.714;5.074;2023-03-15T02:11:39;815.83;;;781.38;;
77310;SDS011;66371;52.714;5.074;2023-03-15T02:14:05;877.53;;;839.90;;
77310;SDS011;66371;52.714;5.074;2023-03-15T02:16:33;818.13;;;783.03;;
77310;SDS011;66371;52.714;5.074;2023-03-15T02:18:59;871.28;;;834.72;;
77310;SDS011;66371;52.714;5.074;2023-03-15T02:27:01;781.22;;;743.88;;
77310;SDS011;66371;52.714;5.074;2023-03-15T02:29:28;775.30;;;737.40;;
77310;SDS011;66371;52.714;5.074;2023-03-15T02:31:54;778.00;;;740.35;;
77310;SDS011;66371;52.714;5.074;2023-03-15T02:34:21;788.00;;;750.78;;
77310;SDS011;66371;52.714;5.074;2023-03-15T02:36:49;796.30;;;759.28;;
77310;SDS011;66371;52.714;5.074;2023-03-15T02:39:19;777.15;;;739.60;;
77310;SDS011;66371;52.714;5.074;2023-03-15T02:41:47;757.53;;;719.90;;
77310;SDS011;66371;52.714;5.074;2023-03-15T02:46:58;764.10;;;725.22;;
77310;SDS011;66371;52.714;5.074;2023-03-15T02:49:36;802.85;;;765.30;;
77310;SDS011;66371;52.714;5.074;2023-03-15T02:52:05;784.75;;;746.85;;
77310;SDS011;66371;52.714;5.074;2023-03-15T02:54:31;781.10;;;742.95;;
77310;SDS011;66371;52.714;5.074;2023-03-15T02:57:00;741.10;;;702.30;;
77310;SDS011;66371;52.714;5.074;2023-03-15T02:59:26;717.67;;;677.22;;
77310;SDS011;66371;52.714;5.074;2023-03-15T03:01:51;737.78;;;695.65;;
77310;SDS011;66371;52.714;5.074;2023-03-15T03:04:17;681.58;;;636.08;;
77310;SDS011;66371;52.714;5.074;2023-03-15T03:06:42;665.58;;;616.58;;
77310;SDS011;66371;52.714;5.074;2023-03-15T03:09:08;656.55;;;606.25;;
77310;SDS011;66371;52.714;5.074;2023-03-15T03:11:34;645.33;;;595.35;;
